createdAt,value
2018-12-24T00:03:38.232Z,0.87
2018-12-24T00:08:44.435Z,0.70
2018-12-24T00:13:50.501Z,1.70
2018-12-24T00:18:56.604Z,4.13
2018-12-24T00:24:02.815Z,1.07
2018-12-24T00:29:08.929Z,0.90
2018-12-24T00:34:15.225Z,1.93
2018-12-24T00:39:21.281Z,1.10
2018-12-24T00:44:27.419Z,2.23
2018-12-24T00:49:33.634Z,1.90
2018-12-24T00:54:39.832Z,0.97
2018-12-24T00:59:45.897Z,1.50
2018-12-24T01:04:52.176Z,1.27
2018-12-24T01:09:58.363Z,1.40
2018-12-24T01:15:04.595Z,0.63
2018-12-24T01:20:10.910Z,1.53
2018-12-24T01:25:17.045Z,1.93
2018-12-24T01:30:23.080Z,1.10
2018-12-24T01:35:29.148Z,2.57
2018-12-24T01:40:35.310Z,2.30
2018-12-24T01:45:41.481Z,1.03
2018-12-24T01:50:47.592Z,2.47
2018-12-24T01:55:53.695Z,4.30
2018-12-24T02:00:59.736Z,2.13
2018-12-24T02:06:05.873Z,3.60
2018-12-24T02:11:12.012Z,1.97
2018-12-24T02:16:18.029Z,2.03
2018-12-24T02:21:24.152Z,1.90
2018-12-24T02:26:30.296Z,3.03
2018-12-24T02:31:36.514Z,2.00
2018-12-24T02:36:42.648Z,2.03
2018-12-24T02:41:48.980Z,3.20
2018-12-24T02:46:55.216Z,3.43
2018-12-24T02:52:01.281Z,6.20
2018-12-24T02:57:07.247Z,3.27
2018-12-24T03:02:13.349Z,3.53
2018-12-24T03:07:19.525Z,2.07
2018-12-24T03:12:25.668Z,2.00
2018-12-24T03:17:31.762Z,2.70
2018-12-24T03:22:37.726Z,2.47
2018-12-24T03:27:43.905Z,3.70
2018-12-24T03:32:50.051Z,3.57
2018-12-24T03:37:56.163Z,5.47
2018-12-24T03:43:12.133Z,4.70
2018-12-24T03:48:09.962Z,5.10
2018-12-24T03:53:16.032Z,4.90
2018-12-24T03:58:22.124Z,5.40
2018-12-24T04:03:28.170Z,5.07
2018-12-24T04:08:34.333Z,5.20
2018-12-24T04:13:40.449Z,6.80
2018-12-24T04:18:46.522Z,4.43
2018-12-24T04:23:52.558Z,3.07
2018-12-24T04:28:58.722Z,3.53
2018-12-24T04:34:04.837Z,3.90
2018-12-24T04:39:10.902Z,3.20
2018-12-24T04:44:16.998Z,6.33
2018-12-24T04:49:23.226Z,3.67
2018-12-24T04:54:29.420Z,4.90
2018-12-24T04:59:35.479Z,3.90
2018-12-24T05:04:41.874Z,3.67
2018-12-24T05:09:48.033Z,3.03
2018-12-24T05:14:54.166Z,1.47
2018-12-24T05:20:00.220Z,3.20
2018-12-24T05:25:06.288Z,2.53
2018-12-24T05:30:12.452Z,0.70
2018-12-24T05:35:18.525Z,0.70
2018-12-24T05:40:24.617Z,1.87
2018-12-24T05:45:30.773Z,2.33
2018-12-24T05:50:36.948Z,1.33
2018-12-24T05:55:43.013Z,2.17
2018-12-24T06:00:49.227Z,2.70
2018-12-24T06:05:55.383Z,3.60
2018-12-24T06:11:01.484Z,6.23
2018-12-24T06:16:07.531Z,4.10
2018-12-24T06:21:13.642Z,4.90
2018-12-24T06:26:19.745Z,4.87
2018-12-24T06:31:25.863Z,4.83
2018-12-24T06:36:31.851Z,4.90
2018-12-24T06:41:37.933Z,6.17
2018-12-24T06:46:43.991Z,8.10
2018-12-24T06:51:50.158Z,18.57
2018-12-24T06:56:56.237Z,18.33
2018-12-24T07:02:02.237Z,16.43
2018-12-24T07:07:08.396Z,12.67
2018-12-24T07:12:14.548Z,8.43
2018-12-24T07:17:20.743Z,10.40
2018-12-24T07:22:26.922Z,14.97
2018-12-24T07:27:32.861Z,14.20
2018-12-24T07:32:39.070Z,13.47
2018-12-24T07:37:45.305Z,13.33
2018-12-24T07:42:51.705Z,13.70
2018-12-24T07:47:57.881Z,14.93
2018-12-24T07:53:04.029Z,27.83
2018-12-24T07:58:10.787Z,11.63
2018-12-24T08:03:16.987Z,14.13
2018-12-24T08:08:23.114Z,18.37
2018-12-24T08:13:29.197Z,19.90
2018-12-24T08:18:35.561Z,12.87
2018-12-24T08:23:41.669Z,16.27
2018-12-24T08:28:47.809Z,16.27
2018-12-24T08:33:54.005Z,15.37
2018-12-24T08:39:00.164Z,17.53
2018-12-24T08:44:06.420Z,19.70
2018-12-24T08:49:12.773Z,20.30
2018-12-24T08:54:39.530Z,14.73
2018-12-24T09:05:11.297Z,7.67
2018-12-24T09:10:17.813Z,8.30
2018-12-24T09:15:25.622Z,8.87
2018-12-24T09:20:31.774Z,10.13
2018-12-24T09:25:38.037Z,8.80
2018-12-24T09:30:50.569Z,12.63
2018-12-24T09:35:56.804Z,9.30
2018-12-24T09:41:02.971Z,9.50
2018-12-24T09:46:09.016Z,11.17
2018-12-24T09:51:15.017Z,8.67
2018-12-24T09:56:21.171Z,7.53
2018-12-24T10:01:27.334Z,7.63
2018-12-24T10:06:37.919Z,7.67
2018-12-24T10:11:44.024Z,5.73
2018-12-24T10:16:50.605Z,5.77
2018-12-24T10:21:56.623Z,6.13
2018-12-24T10:27:02.888Z,4.97
2018-12-24T10:32:09.017Z,5.97
2018-12-24T10:37:15.188Z,5.00
2018-12-24T10:42:21.578Z,8.30
2018-12-24T10:47:27.746Z,6.57
2018-12-24T10:52:33.830Z,5.73
2018-12-24T10:57:39.914Z,4.53
2018-12-24T11:02:46.064Z,6.85
2018-12-24T11:07:53.441Z,5.80
2018-12-24T11:12:59.683Z,4.60
2018-12-24T11:18:05.713Z,3.57
2018-12-24T11:23:12.058Z,4.10
2018-12-24T11:28:18.180Z,4.27
2018-12-24T11:33:24.909Z,1.70
2018-12-24T11:38:31.007Z,1.97
2018-12-24T11:43:38.693Z,3.33
2018-12-24T11:48:44.706Z,3.17
2018-12-24T11:53:52.852Z,2.80
2018-12-24T11:58:59.185Z,3.50
2018-12-24T12:04:05.434Z,3.33
2018-12-24T12:09:12.314Z,6.50
2018-12-24T12:14:18.806Z,3.37
2018-12-24T12:19:25.288Z,4.27
2018-12-24T12:24:31.366Z,6.00
2018-12-24T12:29:37.742Z,2.77
2018-12-24T12:34:43.896Z,2.10
2018-12-24T12:39:50.006Z,1.63
2018-12-24T12:44:56.047Z,2.93
2018-12-24T12:50:02.410Z,3.77
2018-12-24T12:55:08.773Z,6.00
2018-12-24T13:00:14.932Z,4.53
2018-12-24T13:05:21.153Z,5.27
2018-12-24T13:10:27.807Z,5.27
2018-12-24T13:15:33.965Z,5.43
2018-12-24T13:20:40.042Z,6.70
2018-12-24T13:25:46.180Z,6.03
2018-12-24T13:30:52.361Z,5.40
2018-12-24T13:35:58.559Z,7.03
2018-12-24T13:41:04.592Z,10.17
2018-12-24T13:46:12.449Z,15.53
2018-12-24T13:51:18.896Z,7.80
2018-12-24T13:56:24.989Z,8.00
2018-12-24T14:01:31.513Z,11.53
2018-12-24T14:06:37.971Z,5.03
2018-12-24T14:11:43.967Z,7.47
2018-12-24T14:16:50.120Z,5.87
2018-12-24T14:21:56.304Z,6.67
2018-12-24T14:27:13.881Z,5.60
2018-12-24T14:32:20.095Z,7.50
2018-12-24T14:37:26.245Z,6.80
2018-12-24T14:42:32.382Z,6.70
2018-12-24T14:47:38.440Z,6.37
2018-12-24T14:52:44.614Z,5.80
2018-12-24T14:57:50.685Z,5.40
2018-12-24T15:02:56.732Z,6.87
2018-12-24T15:08:02.700Z,5.80
2018-12-24T15:13:09.004Z,7.47
2018-12-24T15:18:15.253Z,4.97
2018-12-24T15:23:40.406Z,4.43
2018-12-24T15:28:46.581Z,6.53
2018-12-24T15:33:52.761Z,3.30
2018-12-24T15:38:59.039Z,2.67
2018-12-24T15:44:05.229Z,3.53
2018-12-24T15:49:11.260Z,2.63
2018-12-24T15:54:17.330Z,2.70
2018-12-24T15:59:23.614Z,4.30
2018-12-24T16:04:29.797Z,9.10
2018-12-24T16:09:36.452Z,14.67
2018-12-24T16:15:01.234Z,4.73
2018-12-24T16:20:07.503Z,5.33
2018-12-24T16:25:13.692Z,7.30
2018-12-24T16:30:19.963Z,7.10
2018-12-24T16:35:36.261Z,8.10
2018-12-24T16:40:44.945Z,5.67
2018-12-24T16:45:52.692Z,6.33
2018-12-24T16:50:58.966Z,4.73
2018-12-24T16:56:06.951Z,5.20
2018-12-24T17:01:14.683Z,3.90
2018-12-24T17:06:22.456Z,5.50
2018-12-24T17:11:39.462Z,4.30
2018-12-24T17:16:45.940Z,5.83
2018-12-24T17:21:52.182Z,9.40
2018-12-24T17:26:58.302Z,6.30
2018-12-24T17:32:04.488Z,4.23
2018-12-24T17:37:10.731Z,7.37
2018-12-24T17:42:16.928Z,4.43
2018-12-24T17:47:23.134Z,4.40
2018-12-24T17:52:29.267Z,4.10
2018-12-24T17:57:35.444Z,4.10
2018-12-24T18:02:41.520Z,6.07
2018-12-24T18:07:47.578Z,5.87
2018-12-24T18:12:53.760Z,8.17
2018-12-24T18:17:59.860Z,4.77
2018-12-24T18:23:05.913Z,4.33
2018-12-24T18:28:11.977Z,4.90
2018-12-24T18:33:18.180Z,4.00
2018-12-24T18:38:24.152Z,11.00
2018-12-24T18:43:30.248Z,9.73
2018-12-24T18:48:36.370Z,5.57
2018-12-24T18:53:42.565Z,8.40
2018-12-24T18:58:48.610Z,5.03
2018-12-24T19:03:55.173Z,8.03
2018-12-24T19:09:01.089Z,5.57
2018-12-24T19:14:09.009Z,5.53
2018-12-24T19:19:15.279Z,5.57
2018-12-24T19:24:21.442Z,6.20
2018-12-24T19:29:27.703Z,6.10
2018-12-24T19:34:33.964Z,7.90
2018-12-24T19:39:40.077Z,5.87
2018-12-24T19:44:46.281Z,6.33
2018-12-24T19:49:52.369Z,5.40
2018-12-24T19:54:58.513Z,5.90
2018-12-24T20:00:04.894Z,7.00
2018-12-24T20:05:12.095Z,5.90
2018-12-24T20:10:18.230Z,6.50
2018-12-24T20:15:24.162Z,6.00
2018-12-24T20:20:30.364Z,6.77
2018-12-24T20:25:36.497Z,6.30
2018-12-24T20:30:42.708Z,7.10
2018-12-24T20:35:48.802Z,6.67
2018-12-24T20:40:55.094Z,6.60
2018-12-24T20:46:01.294Z,5.87
2018-12-24T20:51:15.939Z,6.83
2018-12-24T20:56:15.209Z,7.33
2018-12-24T21:01:21.279Z,5.63
2018-12-24T21:06:27.370Z,6.27
2018-12-24T21:11:33.469Z,5.87
2018-12-24T21:16:39.704Z,6.07
2018-12-24T21:21:45.893Z,5.90
2018-12-24T21:26:51.873Z,4.83
2018-12-24T21:31:58.162Z,5.83
2018-12-24T21:37:04.429Z,6.60
2018-12-24T21:42:10.528Z,5.87
2018-12-24T21:47:16.698Z,7.30
2018-12-24T21:52:22.834Z,7.67
2018-12-24T21:57:29.226Z,6.90
2018-12-24T22:02:35.330Z,6.60
2018-12-24T22:07:42.500Z,7.67
2018-12-24T22:12:48.723Z,8.10
2018-12-24T22:17:54.843Z,8.33
2018-12-24T22:23:00.813Z,10.57
2018-12-24T22:28:06.910Z,8.27
2018-12-24T22:33:12.880Z,9.27
2018-12-24T22:38:18.952Z,10.70
2018-12-24T22:43:25.113Z,10.00
2018-12-24T22:48:31.288Z,9.97
2018-12-24T22:53:37.317Z,11.73
2018-12-24T22:58:43.466Z,10.33
2018-12-24T23:03:49.724Z,10.17
2018-12-24T23:08:55.791Z,11.73
2018-12-24T23:14:01.899Z,12.87
2018-12-24T23:19:07.957Z,11.77
2018-12-24T23:24:14.252Z,11.43
2018-12-24T23:29:20.291Z,11.67
2018-12-24T23:34:26.376Z,12.47
2018-12-24T23:39:32.649Z,13.43
2018-12-24T23:44:38.869Z,12.27
2018-12-24T23:49:44.947Z,12.20
2018-12-24T23:54:50.974Z,12.03
2018-12-24T23:59:57.268Z,11.70
